Time;durP1;ratioP1;P1;durP2;ratioP2;P2;SDS_P1;SDS_P2;PMS_P1;PMS_P2;Temp;Humidity;BMP_temperature;BMP_pressure;BME280_temperature;BME280_humidity;BME280_pressure;Samples;Min_cycle;Max_cycle;Signal;HPM_P1;HPM_P2
2023/05/20 00:01:23;;;;;;;;;0.00;0.00;;;;;-146.67;100.00;57155.34;5122554;28;8834;-84
2023/05/20 00:03:48;;;;;;;;;0.00;0.00;;;;;-146.67;100.00;57155.34;5123645;28;9562;-85
2023/05/20 00:06:13;;;;;;;;;9.25;9.25;;;;;-146.67;100.00;57155.34;5123934;27;8815;-85
2023/05/20 00:08:39;;;;;;;;;9.50;7.25;;;;;-146.67;100.00;57155.34;5122296;27;8802;-84
2023/05/20 00:11:05;;;;;;;;;10.25;9.00;;;;;-146.67;100.00;57155.34;5143000;27;8795;-85
2023/05/20 00:13:30;;;;;;;;;7.00;6.00;;;;;-146.67;100.00;57155.34;5127021;27;9608;-84
2023/05/20 00:15:56;;;;;;;;;12.00;10.75;;;;;-146.67;100.00;57155.34;5125699;28;9989;-84
2023/05/20 00:18:21;;;;;;;;;5.75;4.50;;;;;-146.67;100.00;57155.34;5126523;27;8814;-84
2023/05/20 00:20:47;;;;;;;;;0.00;0.00;;;;;-146.67;100.00;57155.34;5127355;27;9003;-85
2023/05/20 00:23:12;;;;;;;;;7.00;5.75;;;;;-146.67;100.00;57155.34;5125887;28;8790;-84
2023/05/20 00:25:38;;;;;;;;;0.00;0.00;;;;;-146.67;100.00;57155.34;5127338;27;8798;-85
2023/05/20 00:28:04;;;;;;;;;15.00;11.00;;;;;-146.67;100.00;57155.34;5125021;28;8845;-84
2023/05/20 00:30:30;;;;;;;;;15.25;11.00;;;;;-146.67;100.00;57155.34;5125447;28;8782;-85
2023/05/20 00:32:55;;;;;;;;;12.25;9.00;;;;;-146.67;100.00;57155.34;5126958;27;10882;-85
2023/05/20 00:35:20;;;;;;;;;9.00;9.00;;;;;-146.67;100.00;57155.34;5125429;28;9865;-85
2023/05/20 00:37:46;;;;;;;;;8.00;8.00;;;;;-146.67;100.00;57155.34;5125297;28;8818;-85
2023/05/20 00:40:11;;;;;;;;;0.00;0.00;;;;;-146.67;100.00;57155.34;5126826;27;8818;-84
2023/05/20 00:42:37;;;;;;;;;9.25;8.25;;;;;-146.67;100.00;57155.34;5126556;27;8787;-85
2023/05/20 00:45:03;;;;;;;;;0.00;0.00;;;;;-146.67;100.00;57155.34;5126691;27;8810;-84
2023/05/20 00:47:31;;;;;;;;;11.25;9.00;;;;;-146.67;100.00;57155.34;5126221;27;8771;-84
2023/05/20 00:49:57;;;;;;;;;11.25;9.25;;;;;-146.67;100.00;57155.34;5126557;27;8736;-84
2023/05/20 00:52:24;;;;;;;;;9.50;8.00;;;;;-146.67;100.00;57155.34;5126170;27;10747;-84
2023/05/20 00:54:50;;;;;;;;;11.25;9.75;;;;;-146.67;100.00;57155.34;5141801;27;11150;-84
2023/05/20 00:57:18;;;;;;;;;10.50;9.75;;;;;-146.67;100.00;57155.34;5126364;28;10826;-85
2023/05/20 00:59:43;;;;;;;;;0.00;0.00;;;;;-146.67;100.00;57155.34;5142236;27;10899;-84
2023/05/20 01:02:09;;;;;;;;;0.00;0.00;;;;;-146.67;100.00;57155.34;5142407;27;8783;-85
2023/05/20 01:04:34;;;;;;;;;18.75;10.00;;;;;-146.67;100.00;57155.34;5126154;27;8810;-85
2023/05/20 01:07:06;;;;;;;;;11.50;9.50;;;;;-146.67;100.00;57155.34;5126309;28;8822;-84
2023/05/20 01:09:32;;;;;;;;;9.50;9.50;;;;;-146.67;100.00;57155.34;5125915;28;8841;-84
2023/05/20 01:12:13;;;;;;;;;4.75;4.75;;;;;-146.67;100.00;57155.34;5126456;28;10677;-85
2023/05/20 01:14:49;;;;;;;;;14.75;9.75;;;;;-146.67;100.00;57155.34;5126114;28;8762;-84
2023/05/20 01:17:19;;;;;;;;;16.25;8.75;;;;;-146.67;100.00;57155.34;5124179;28;10874;-84
2023/05/20 01:19:47;;;;;;;;;8.75;8.00;;;;;-146.67;100.00;57155.34;5125749;28;10908;-84
2023/05/20 01:22:13;;;;;;;;;11.75;8.75;;;;;-146.67;100.00;57155.34;5125852;28;10728;-84
2023/05/20 01:24:48;;;;;;;;;7.50;7.50;;;;;-146.67;29.54;74751.47;5122816;28;61101;-84
2023/05/20 01:27:13;;;;;;;;;13.50;8.50;;;;;-146.67;29.24;74729.50;5110776;28;61116;-84
2023/05/20 01:29:40;;;;;;;;;13.25;10.00;;;;;-146.67;29.43;74757.47;5084883;27;61910;-84
2023/05/20 01:32:14;;;;;;;;;7.50;4.50;;;;;-146.67;29.36;74767.44;5085100;28;61702;-85
2023/05/20 01:34:41;;;;;;;;;7.50;4.25;;;;;-146.67;29.67;74751.47;5083359;28;63701;-84
2023/05/20 01:37:07;;;;;;;;;10.00;7.50;;;;;-146.67;29.40;74751.47;5083435;28;61913;-84
2023/05/20 01:39:38;;;;;;;;;6.50;6.00;;;;;-146.67;29.51;74741.50;5084587;28;62191;-84
2023/05/20 01:42:05;;;;;;;;;18.00;10.25;;;;;-146.67;29.38;74763.44;5083590;28;62034;-84
2023/05/20 01:44:30;;;;;;;;;7.25;6.00;;;;;-146.67;29.46;74773.44;5084048;28;62005;-85
2023/05/20 01:46:55;;;;;;;;;0.00;0.00;;;;;-146.67;29.65;74783.41;5082966;28;61786;-84
2023/05/20 01:49:21;;;;;;;;;0.00;0.00;;;;;-146.67;29.49;74769.44;5084910;28;62030;-85
2023/05/20 01:51:46;;;;;;;;;9.50;8.00;;;;;-146.67;29.91;74765.44;5084820;28;61710;-84
2023/05/20 01:54:11;;;;;;;;;11.25;9.25;;;;;-146.67;30.00;74799.38;5083400;28;61877;-85
2023/05/20 01:56:37;;;;;;;;;0.00;0.00;;;;;-146.67;29.79;74795.41;5084612;28;62063;-84
2023/05/20 01:59:02;;;;;;;;;9.50;7.75;;;;;-146.67;30.37;74799.38;5084491;28;61954;-84
2023/05/20 02:01:28;;;;;;;;;17.00;10.50;;;;;-146.67;30.23;74813.38;5084311;28;62142;-84
2023/05/20 02:03:53;;;;;;;;;15.00;10.25;;;;;-146.67;30.26;74835.31;5083700;28;61769;-84
2023/05/20 02:06:18;;;;;;;;;4.25;4.25;;;;;-146.67;30.34;74827.34;5083079;28;61974;-84
2023/05/20 02:08:44;;;;;;;;;9.75;9.50;;;;;-146.67;30.01;74821.34;5082516;28;61741;-84
2023/05/20 02:11:09;;;;;;;;;0.00;0.00;;;;;-146.67;29.92;74829.34;5084891;28;61819;-84
2023/05/20 02:13:34;;;;;;;;;9.50;8.00;;;;;-146.67;30.54;74855.28;5083456;28;62098;-84
2023/05/20 02:16:00;;;;;;;;;13.00;10.25;;;;;-146.67;30.54;74847.31;5084379;28;61853;-84
2023/05/20 02:18:25;;;;;;;;;13.00;8.00;;;;;-146.67;30.58;74837.31;5083814;28;61855;-84
2023/05/20 02:20:51;;;;;;;;;8.75;5.75;;;;;-146.67;30.17;74859.28;5084177;28;62291;-85
2023/05/20 02:23:17;;;;;;;;;0.00;0.00;;;;;-146.67;30.68;74865.28;5082067;28;64761;-84
2023/05/20 02:25:42;;;;;;;;;13.50;8.75;;;;;-146.67;30.86;74855.28;5082590;28;61853;-84
2023/05/20 02:28:09;;;;;;;;;13.50;12.00;;;;;-146.67;30.49;74867.28;5083724;28;62098;-84
2023/05/20 02:30:38;;;;;;;;;10.75;8.25;;;;;-146.67;31.05;74883.25;5084217;28;61865;-85
2023/05/20 02:33:03;;;;;;;;;15.00;12.75;;;;;-146.67;30.92;74893.22;5082522;28;62153;-85
2023/05/20 02:35:29;;;;;;;;;6.00;6.00;;;;;-146.67;31.28;74903.22;5084096;28;61850;-84
2023/05/20 02:37:54;;;;;;;;;11.50;9.25;;;;;-146.67;31.44;74901.22;5083484;28;62477;-84
2023/05/20 02:40:20;;;;;;;;;11.75;11.00;;;;;-146.67;31.20;74905.22;5082440;28;61783;-84
2023/05/20 02:42:45;;;;;;;;;14.50;12.00;;;;;-146.67;31.41;74915.19;5082870;28;63095;-84
2023/05/20 02:45:11;;;;;;;;;11.00;10.00;;;;;-146.67;31.22;74917.19;5082384;28;61995;-84
2023/05/20 02:47:36;;;;;;;;;19.50;12.75;;;;;-146.67;31.72;74925.19;5083123;28;61941;-84
2023/05/20 02:50:02;;;;;;;;;12.00;8.75;;;;;-146.67;31.56;74919.19;5083878;28;61914;-84
2023/05/20 02:52:27;;;;;;;;;7.50;5.00;;;;;-146.67;31.42;74929.16;5081409;28;63499;-84
2023/05/20 02:54:53;;;;;;;;;13.75;10.25;;;;;-146.67;31.51;74913.19;5083327;28;61797;-84
2023/05/20 02:57:18;;;;;;;;;12.50;10.25;;;;;-146.67;31.59;74911.19;5083798;28;62387;-84
2023/05/20 02:59:43;;;;;;;;;13.50;11.00;;;;;-146.67;31.07;74899.22;5083348;28;62032;-85
2023/05/20 03:02:09;;;;;;;;;10.50;8.25;;;;;-146.67;31.41;74897.22;5082982;28;61865;-85
2023/05/20 03:04:37;;;;;;;;;6.25;6.25;;;;;-146.67;31.25;74895.22;5083503;28;61787;-84
2023/05/20 03:07:06;;;;;;;;;15.00;11.25;;;;;-146.67;31.29;74901.22;5081671;28;61790;-85
2023/05/20 03:09:32;;;;;;;;;16.50;12.00;;;;;-146.67;100.00;57155.34;5099121;28;61968;-85
2023/05/20 03:11:57;;;;;;;;;11.50;9.75;;;;;-146.67;100.00;57155.34;5124246;28;8814;-85
2023/05/20 03:14:22;;;;;;;;;13.00;11.75;;;;;-146.67;100.00;57155.34;5124213;28;8822;-84
2023/05/20 03:16:48;;;;;;;;;18.50;11.75;;;;;-146.67;100.00;57155.34;5123940;28;8806;-84
2023/05/20 03:19:13;;;;;;;;;14.00;12.25;;;;;-146.67;100.00;57155.34;5124470;28;8814;-85
2023/05/20 03:21:39;;;;;;;;;11.25;9.75;;;;;-146.67;100.00;57155.34;5123551;28;8935;-84
2023/05/20 03:24:04;;;;;;;;;18.00;12.50;;;;;-146.67;100.00;57155.34;5122724;28;8802;-85
2023/05/20 03:26:32;;;;;;;;;9.75;8.75;;;;;-146.67;100.00;57155.34;5124088;28;8868;-85
2023/05/20 03:28:57;;;;;;;;;16.00;14.00;;;;;-146.67;100.00;57155.34;5123735;28;8840;-84
2023/05/20 03:31:22;;;;;;;;;16.75;14.00;;;;;-146.67;100.00;57155.34;5124126;28;11435;-84
2023/05/20 03:33:48;;;;;;;;;13.50;11.25;;;;;-146.67;100.00;57155.34;5124044;28;8771;-85
2023/05/20 03:36:13;;;;;;;;;15.50;12.50;;;;;-146.67;100.00;57155.34;5123692;28;8783;-84
2023/05/20 03:38:39;;;;;;;;;17.50;13.75;;;;;-146.67;100.00;57155.34;5124087;28;8821;-85
2023/05/20 03:41:04;;;;;;;;;14.50;12.00;;;;;-146.67;100.00;57155.34;5123573;28;8853;-84
2023/05/20 03:43:30;;;;;;;;;17.00;15.00;;;;;-146.67;100.00;57155.34;5123695;28;8799;-84
2023/05/20 03:45:56;;;;;;;;;13.50;12.75;;;;;-146.67;100.00;57155.34;5123982;28;8720;-84
2023/05/20 03:48:21;;;;;;;;;17.00;15.00;;;;;-146.67;100.00;57155.34;5123260;28;8802;-85
2023/05/20 03:50:46;;;;;;;;;14.75;12.00;;;;;-146.67;100.00;57155.34;5123454;28;8803;-84
2023/05/20 03:53:12;;;;;;;;;16.25;15.25;;;;;-146.67;100.00;57155.34;5121989;28;9634;-84
2023/05/20 03:55:38;;;;;;;;;14.75;13.75;;;;;-146.67;100.00;57155.34;5123795;28;8779;-84
2023/05/20 03:58:03;;;;;;;;;14.00;11.75;;;;;-146.67;100.00;57155.34;5123670;28;8783;-83
2023/05/20 04:00:30;;;;;;;;;17.25;14.50;;;;;-146.67;100.00;57155.34;5123414;28;11495;-84
2023/05/20 04:02:55;;;;;;;;;16.75;15.75;;;;;-146.67;100.00;57155.34;5123782;28;8887;-84
2023/05/20 04:05:22;;;;;;;;;14.25;12.00;;;;;-146.67;100.00;57155.34;5122776;28;12220;-84
2023/05/20 04:07:48;;;;;;;;;9.75;7.75;;;;;-146.67;100.00;57155.34;5123971;28;8732;-84
2023/05/20 04:10:14;;;;;;;;;12.75;11.75;;;;;-146.67;100.00;57155.34;5123393;28;8791;-83
2023/05/20 04:12:40;;;;;;;;;13.25;13.25;;;;;-146.67;100.00;57155.34;5123608;28;8807;-84
2023/05/20 04:15:06;;;;;;;;;8.75;8.75;;;;;-146.67;100.00;57155.34;5122178;28;8858;-84
2023/05/20 04:17:31;;;;;;;;;20.50;17.50;;;;;-146.67;100.00;57155.34;5123056;28;8759;-83
2023/05/20 04:20:00;;;;;;;;;13.50;13.50;;;;;-146.67;100.00;57155.34;5121566;28;11496;-84
2023/05/20 04:22:25;;;;;;;;;17.50;15.50;;;;;-146.67;100.00;57155.34;5123379;28;8864;-83
2023/05/20 04:24:51;;;;;;;;;18.00;13.75;;;;;-146.67;100.00;57155.34;5121723;28;11464;-83
2023/05/20 04:27:16;;;;;;;;;15.50;13.25;;;;;-146.67;100.00;57155.34;5121985;28;8868;-84
2023/05/20 04:29:45;;;;;;;;;21.00;12.25;;;;;-146.67;100.00;57155.34;5123011;28;8799;-84
2023/05/20 04:32:16;;;;;;;;;0.00;0.00;;;;;-146.67;100.00;57155.34;5123575;28;8783;-84
2023/05/20 04:34:41;;;;;;;;;15.25;14.25;;;;;-146.67;100.00;57155.34;5123045;28;8736;-84
2023/05/20 04:37:08;;;;;;;;;15.00;13.00;;;;;-146.67;100.00;57155.34;5123051;28;10935;-84
2023/05/20 04:39:33;;;;;;;;;17.25;15.50;;;;;-146.67;100.00;57155.34;5121463;28;10021;-84
2023/05/20 04:41:59;;;;;;;;;19.25;14.00;;;;;-146.67;100.00;57155.34;5123244;27;11453;-84
2023/05/20 04:44:25;;;;;;;;;20.50;13.50;;;;;-146.67;100.00;57155.34;5122863;28;8831;-82
2023/05/20 04:46:51;;;;;;;;;16.50;13.75;;;;;-146.67;100.00;57155.34;5120940;28;9798;-83
2023/05/20 04:49:17;;;;;;;;;18.50;14.00;;;;;-146.67;100.00;57155.34;5122928;28;8787;-84
2023/05/20 04:51:42;;;;;;;;;20.75;19.25;;;;;-146.67;100.00;57155.34;5121542;28;8803;-84
2023/05/20 04:54:08;;;;;;;;;16.00;13.50;;;;;-146.67;100.00;57155.34;5122692;28;8829;-84
2023/05/20 04:56:33;;;;;;;;;19.00;13.50;;;;;-146.67;100.00;57155.34;5125810;28;8783;-84
2023/05/20 04:58:59;;;;;;;;;11.00;11.00;;;;;-146.67;100.00;57155.34;5126390;28;8799;-83
2023/05/20 05:01:24;;;;;;;;;13.75;13.75;;;;;-146.67;100.00;57155.34;5125955;28;8827;-84
2023/05/20 05:03:49;;;;;;;;;10.50;8.00;;;;;-146.67;100.00;57155.34;5125153;28;8798;-83
2023/05/20 05:06:15;;;;;;;;;17.75;15.25;;;;;-146.67;100.00;57155.34;5124830;28;8798;-84
2023/05/20 05:08:40;;;;;;;;;0.00;0.00;;;;;-146.67;100.00;57155.34;5126524;28;8807;-84
2023/05/20 05:11:06;;;;;;;;;19.00;15.75;;;;;-146.67;100.00;57155.34;5126330;28;8803;-84
2023/05/20 05:13:31;;;;;;;;;9.00;9.00;;;;;-146.67;30.06;74659.63;5121650;28;61698;-83
2023/05/20 05:16:00;;;;;;;;;10.50;7.25;;;;;-146.67;29.91;74659.63;5085524;28;61740;-81
2023/05/20 05:18:26;;;;;;;;;17.75;15.75;;;;;-146.67;29.89;74665.63;5083868;28;62084;-84
2023/05/20 05:20:59;;;;;;;;;15.00;7.25;;;;;-146.67;30.30;74687.56;5085164;28;61722;-84
2023/05/20 05:23:25;;;;;;;;;19.75;17.25;;;;;-146.67;30.29;74703.56;5083823;28;62014;-84
2023/05/20 05:25:51;;;;;;;;;22.25;16.50;;;;;-146.67;30.41;74715.53;5083697;28;61753;-84
2023/05/20 05:28:17;;;;;;;;;0.00;0.00;;;;;-146.67;30.11;74693.56;5083296;28;63795;-84
2023/05/20 05:30:42;;;;;;;;;21.50;17.75;;;;;-146.67;30.01;74731.50;5084321;28;61831;-84
2023/05/20 05:33:07;;;;;;;;;21.00;15.50;;;;;-146.67;30.84;74729.50;5083718;28;61727;-84
2023/05/20 05:35:33;;;;;;;;;18.50;16.25;;;;;-146.67;30.74;74717.53;5084968;28;61754;-84
2023/05/20 05:37:58;;;;;;;;;15.00;11.75;;;;;-146.67;30.64;74717.53;5084292;28;61983;-84
2023/05/20 05:40:23;;;;;;;;;0.00;0.00;;;;;-146.67;30.17;74713.53;5085131;28;62018;-84
2023/05/20 05:42:49;;;;;;;;;22.25;17.00;;;;;-146.67;30.14;74711.53;5084676;28;61758;-84
2023/05/20 05:45:14;;;;;;;;;19.25;16.00;;;;;-146.67;30.69;74719.53;5084514;28;61802;-84
2023/05/20 05:47:41;;;;;;;;;17.25;16.00;;;;;-146.67;30.38;74727.50;5083332;28;61857;-84
2023/05/20 05:50:07;;;;;;;;;16.25;15.50;;;;;-146.67;30.27;74739.50;5084779;28;61893;-84
2023/05/20 05:52:32;;;;;;;;;21.25;17.25;;;;;-146.67;30.47;74715.53;5084489;28;61821;-84
2023/05/20 05:54:58;;;;;;;;;15.75;15.75;;;;;-146.67;30.58;74695.56;5083264;28;61726;-83
2023/05/20 05:57:23;;;;;;;;;19.75;13.75;;;;;-146.67;30.49;74677.59;5083983;28;63191;-84
2023/05/20 05:59:49;;;;;;;;;23.75;17.75;;;;;-146.67;30.30;74683.59;5082275;28;61966;-84
2023/05/20 06:02:15;;;;;;;;;24.75;17.50;;;;;-146.67;30.49;74683.59;5084593;28;61857;-84
2023/05/20 06:04:40;;;;;;;;;0.00;0.00;;;;;-146.67;30.12;74671.59;5084774;28;61880;-84
2023/05/20 06:07:06;;;;;;;;;18.00;13.75;;;;;-146.67;30.37;74659.63;5082560;28;62041;-84
2023/05/20 06:09:31;;;;;;;;;14.25;10.25;;;;;-146.67;30.12;74651.66;5084431;28;62048;-84
2023/05/20 06:11:56;;;;;;;;;17.75;16.25;;;;;-146.67;30.40;74687.56;5084370;28;61845;-84
2023/05/20 06:14:22;;;;;;;;;0.00;0.00;;;;;-146.67;30.17;74663.63;5084338;28;61770;-83
2023/05/20 06:16:47;;;;;;;;;14.25;12.50;;;;;-146.67;30.32;74669.63;5083436;28;61882;-80
2023/05/20 06:19:13;;;;;;;;;15.75;12.75;;;;;-146.67;30.33;74655.63;5084255;28;61822;-84
2023/05/20 06:21:38;;;;;;;;;17.50;15.25;;;;;-146.67;30.15;74673.59;5082851;28;61885;-84
2023/05/20 06:24:04;;;;;;;;;0.00;0.00;;;;;-146.67;30.30;74669.63;5083181;28;62209;-84
2023/05/20 06:26:30;;;;;;;;;20.75;15.25;;;;;-146.67;29.96;74649.66;5083504;28;62922;-84
2023/05/20 06:28:56;;;;;;;;;17.25;14.75;;;;;-146.67;30.32;74645.66;5083330;28;62257;-84
2023/05/20 06:31:21;;;;;;;;;7.75;7.25;;;;;-146.67;30.23;74647.66;5082947;28;61766;-84
2023/05/20 06:33:46;;;;;;;;;14.25;12.00;;;;;-146.67;30.16;74617.69;5084214;28;62039;-84
2023/05/20 06:36:12;;;;;;;;;20.75;15.25;;;;;-146.67;30.03;74605.72;5083211;28;62146;-84
2023/05/20 06:38:37;;;;;;;;;17.00;13.00;;;;;-146.67;29.97;74603.72;5083921;28;61813;-83
2023/05/20 06:41:03;;;;;;;;;10.25;8.75;;;;;-146.67;29.92;74571.78;5083897;28;61885;-84
2023/05/20 06:43:28;;;;;;;;;19.00;15.75;;;;;-146.67;29.86;74561.81;5082188;28;62810;-84
2023/05/20 06:45:54;;;;;;;;;0.00;0.00;;;;;-146.67;29.67;74557.81;5083409;28;61747;-84
2023/05/20 06:48:19;;;;;;;;;15.00;14.00;;;;;-146.67;29.75;74541.84;5081803;28;62046;-84
2023/05/20 06:50:45;;;;;;;;;17.00;16.00;;;;;-146.67;29.50;74529.84;5083491;28;61857;-84
2023/05/20 06:53:10;;;;;;;;;16.00;14.00;;;;;-146.67;29.62;74507.91;5083468;28;61933;-84
2023/05/20 06:55:37;;;;;;;;;0.00;0.00;;;;;-146.67;29.30;74513.88;5083299;28;61739;-84
2023/05/20 06:58:02;;;;;;;;;0.00;0.00;;;;;-146.67;29.20;74483.94;5083466;28;61823;-84
2023/05/20 07:00:27;;;;;;;;;0.00;0.00;;;;;-146.67;29.17;74483.94;5083698;28;62105;-84
2023/05/20 07:02:53;;;;;;;;;11.50;9.00;;;;;-146.67;29.34;74485.94;5083923;28;61753;-84
2023/05/20 07:05:18;;;;;;;;;0.00;0.00;;;;;-146.67;28.92;74448.00;5092893;27;63792;-84
2023/05/20 07:07:44;;;;;;;;;21.00;20.00;;;;;-146.67;29.09;74430.03;5081873;28;61823;-84
2023/05/20 07:10:09;;;;;;;;;22.50;16.25;;;;;-146.67;28.90;74412.06;5083321;28;61766;-84
2023/05/20 07:12:35;;;;;;;;;15.00;12.50;;;;;-146.67;28.81;74414.06;5083320;28;61786;-84
2023/05/20 07:15:00;;;;;;;;;18.00;15.00;;;;;-146.67;28.67;74390.09;5098138;27;63870;-84
2023/05/20 07:17:28;;;;;;;;;0.00;0.00;;;;;-146.67;28.65;74370.16;5082862;28;61755;-84
2023/05/20 07:19:54;;;;;;;;;0.00;0.00;;;;;-146.67;28.53;74344.19;5083421;28;61707;-84
2023/05/20 07:22:19;;;;;;;;;0.00;0.00;;;;;-146.67;28.41;74338.19;5083496;28;61822;-84
2023/05/20 07:24:45;;;;;;;;;0.00;0.00;;;;;-146.67;28.27;74350.19;5098538;27;63705;-84
2023/05/20 07:27:10;;;;;;;;;16.50;14.25;;;;;-146.67;28.67;74378.13;5082724;28;61973;-84
2023/05/20 07:29:36;;;;;;;;;19.50;13.75;;;;;-146.67;28.72;74386.13;5082760;28;61810;-84
2023/05/20 07:32:04;;;;;;;;;0.00;0.00;;;;;-146.67;28.58;74352.19;5082195;28;61901;-84
2023/05/20 07:34:29;;;;;;;;;13.50;10.00;;;;;-146.67;28.61;74372.13;5098138;27;63772;-85
2023/05/20 07:36:56;;;;;;;;;0.00;0.00;;;;;-146.67;28.56;74388.09;5098870;27;61974;-84
2023/05/20 07:39:22;;;;;;;;;18.50;15.00;;;;;-146.67;28.74;74360.16;5082930;28;61885;-84
2023/05/20 07:41:48;;;;;;;;;0.00;0.00;;;;;-146.67;28.68;74322.22;5082992;28;62371;-84
2023/05/20 07:44:13;;;;;;;;;16.00;15.50;;;;;-146.67;28.34;74344.19;5082060;28;61943;-85
2023/05/20 07:46:40;;;;;;;;;0.00;0.00;;;;;-146.67;28.53;74330.22;5083287;28;61776;-84
2023/05/20 07:49:06;;;;;;;;;0.00;0.00;;;;;-146.67;28.24;74288.28;5098233;27;61990;-84
2023/05/20 07:51:31;;;;;;;;;0.00;0.00;;;;;-146.67;28.22;74278.31;5083106;28;62053;-84
2023/05/20 07:53:57;;;;;;;;;0.00;0.00;;;;;-146.67;28.08;74268.31;5081022;28;63962;-84
2023/05/20 07:56:23;;;;;;;;;0.00;0.00;;;;;-146.67;28.33;74304.25;5082527;28;61776;-84
2023/05/20 07:59:02;;;;;;;;;12.50;11.50;;;;;-146.67;28.21;74340.19;5098481;27;61799;-85
2023/05/20 08:01:27;;;;;;;;;0.00;0.00;;;;;-146.67;28.70;74354.16;5083056;28;61841;-84
2023/05/20 08:03:53;;;;;;;;;0.00;0.00;;;;;-146.67;28.36;74342.19;5081264;28;61833;-85
2023/05/20 08:06:19;;;;;;;;;0.00;0.00;;;;;-146.67;28.61;74344.19;5081394;28;61927;-85
2023/05/20 08:08:45;;;;;;;;;0.00;0.00;;;;;-146.67;28.69;74356.16;5083053;28;61901;-84
2023/05/20 08:11:10;;;;;;;;;0.00;0.00;;;;;-146.67;28.85;74372.13;5082803;28;61845;-84
2023/05/20 08:13:36;;;;;;;;;0.00;0.00;;;;;-146.67;28.37;74364.16;5082032;28;62364;-84
2023/05/20 08:16:04;;;;;;;;;19.00;13.50;;;;;-146.67;29.05;74372.13;5081144;28;61903;-85
2023/05/20 08:18:31;;;;;;;;;1.00;0.00;;;;;-146.67;28.83;74384.13;5082330;28;61716;-85
2023/05/20 08:20:57;;;;;;;;;0.00;0.00;;;;;-146.67;28.89;74372.13;5082995;28;61821;-85
2023/05/20 08:23:23;;;;;;;;;0.00;0.00;;;;;-146.67;28.97;74330.22;5081998;28;61869;-84
2023/05/20 08:25:49;;;;;;;;;19.50;12.50;;;;;-146.67;28.70;74300.28;5082061;28;61718;-84
2023/05/20 08:28:15;;;;;;;;;0.00;0.00;;;;;-146.67;28.43;74294.28;5082438;28;61767;-84
2023/05/20 08:30:40;;;;;;;;;0.00;0.00;;;;;-146.67;28.18;74276.31;5082925;28;61761;-84
2023/05/20 08:33:06;;;;;;;;;9.75;8.00;;;;;-146.67;28.30;74256.34;5084108;28;64331;-84
2023/05/20 08:35:32;;;;;;;;;0.00;0.00;;;;;-146.67;28.24;74270.31;5084726;28;61850;-85
2023/05/20 08:37:57;;;;;;;;;0.00;0.00;;;;;-146.67;28.30;74264.34;5086251;28;61830;-84
2023/05/20 08:40:23;;;;;;;;;18.25;13.25;;;;;-146.67;28.17;74250.38;5084185;28;62062;-84
2023/05/20 08:42:53;;;;;;;;;0.00;0.00;;;;;-146.67;28.50;74244.38;5085286;28;61857;-83
2023/05/20 08:45:22;;;;;;;;;0.00;0.00;;;;;-146.67;28.20;74242.38;5085999;28;61778;-82
2023/05/20 08:47:48;;;;;;;;;12.50;10.25;;;;;-146.67;28.35;74236.38;5085165;28;61954;-83
2023/05/20 08:50:15;;;;;;;;;0.00;0.00;;;;;-146.67;28.30;74228.41;5085936;28;61862;-83
2023/05/20 08:52:50;;;;;;;;;0.00;0.00;;;;;-146.67;28.46;74218.41;5083718;28;63778;-83
2023/05/20 08:55:29;;;;;;;;;11.50;11.00;;;;;-146.67;28.08;74228.41;5085234;28;61870;-83
2023/05/20 08:57:55;;;;;;;;;0.00;0.00;;;;;-146.67;28.23;74254.34;5084372;28;61956;-83
2023/05/20 09:00:27;;;;;;;;;0.00;0.00;;;;;-146.67;28.60;74240.38;5085642;28;61794;-83
2023/05/20 09:02:54;;;;;;;;;0.00;0.00;;;;;-146.67;28.49;74228.41;5085105;28;63074;-83
2023/05/20 09:05:20;;;;;;;;;0.00;0.00;;;;;-146.67;28.10;74212.44;5085542;28;61916;-83
2023/05/20 09:07:45;;;;;;;;;0.00;0.00;;;;;-146.67;27.79;74206.44;5085613;28;62028;-84
2023/05/20 09:10:11;;;;;;;;;0.00;0.00;;;;;-146.67;27.84;74216.44;5085433;28;61734;-83
2023/05/20 09:12:39;;;;;;;;;0.00;0.00;;;;;-146.67;27.93;74210.44;5084887;28;63159;-83
2023/05/20 09:15:06;;;;;;;;;8.25;4.00;;;;;-146.67;27.93;74198.47;5085291;28;61816;-83
2023/05/20 09:17:35;;;;;;;;;0.00;0.00;;;;;-146.67;27.69;74200.44;5083741;28;61827;-83
2023/05/20 09:20:05;;;;;;;;;0.00;0.00;;;;;-146.67;27.34;74198.47;5085578;28;62095;-84
2023/05/20 09:22:30;;;;;;;;;10.50;7.25;;;;;-146.67;27.49;74196.47;5082841;28;64583;-83
2023/05/20 09:24:55;;;;;;;;;0.00;0.00;;;;;-146.67;27.22;74178.50;5085072;28;62048;-83
2023/05/20 09:27:21;;;;;;;;;0.00;0.00;;;;;-146.67;27.23;74160.53;5085482;28;61819;-83
2023/05/20 09:29:47;;;;;;;;;8.75;7.00;;;;;-146.67;27.32;74152.53;5085079;28;61739;-83
2023/05/20 09:32:13;;;;;;;;;0.00;0.00;;;;;-146.67;27.47;74148.56;5084707;28;62794;-83
2023/05/20 09:34:44;;;;;;;;;0.00;0.00;;;;;-146.67;27.33;74132.56;5083799;28;61860;-83
2023/05/20 09:37:10;;;;;;;;;0.00;0.00;;;;;-146.67;27.36;74134.56;5085088;28;61928;-83
2023/05/20 09:39:55;;;;;;;;;0.00;0.00;;;;;-146.67;27.49;74122.59;5085393;28;61900;-83
2023/05/20 09:42:25;;;;;;;;;0.00;0.00;;;;;-146.67;27.32;74106.63;5084398;28;62124;-83
2023/05/20 09:44:53;;;;;;;;;0.00;0.00;;;;;-146.67;27.53;74102.63;5083332;28;61868;-83
2023/05/20 09:47:18;;;;;;;;;0.00;0.00;;;;;-146.67;27.42;74088.66;5084757;28;61875;-83
2023/05/20 09:49:46;;;;;;;;;0.00;0.00;;;;;-146.67;27.03;74068.69;5085131;28;61937;-83
2023/05/20 09:52:12;;;;;;;;;0.00;0.00;;;;;-146.67;27.27;74056.72;5083730;28;61857;-81
2023/05/20 09:54:38;;;;;;;;;0.00;0.00;;;;;-146.67;27.20;74054.72;5084811;28;61864;-82
2023/05/20 09:57:05;;;;;;;;;0.00;0.00;;;;;-146.67;27.24;74042.75;5084845;28;61773;-83
2023/05/20 09:59:32;;;;;;;;;0.00;0.00;;;;;-146.67;27.22;74028.78;5083440;28;61830;-83
2023/05/20 10:01:57;;;;;;;;;0.00;0.00;;;;;-146.67;26.85;74016.78;5084219;28;61858;-83
2023/05/20 10:04:26;;;;;;;;;0.00;0.00;;;;;-146.67;26.88;74004.81;5084521;28;61884;-83
2023/05/20 10:07:10;;;;;;;;;0.00;0.00;;;;;-146.67;27.02;74006.81;5084490;28;61897;-83
2023/05/20 10:09:55;;;;;;;;;0.00;0.00;;;;;-146.67;26.64;73992.84;5083407;28;62288;-83
2023/05/20 10:12:35;;;;;;;;;0.00;0.00;;;;;-146.67;26.88;73978.88;5082794;28;63642;-83
2023/05/20 10:15:11;;;;;;;;;0.00;0.00;;;;;-146.67;26.82;73964.91;5084020;27;61814;-83
2023/05/20 10:17:52;;;;;;;;;0.00;0.00;;;;;-146.67;26.98;73984.84;5084081;28;61940;-82
2023/05/20 10:20:17;;;;;;;;;0.00;0.00;;;;;-146.67;26.48;73972.88;5082987;28;61774;-81
2023/05/20 10:22:44;;;;;;;;;0.00;0.00;;;;;-146.67;26.55;73954.91;5083801;28;62024;-83
2023/05/20 10:25:23;;;;;;;;;0.00;0.00;;;;;-146.67;26.19;73946.94;5084460;28;61657;-83
2023/05/20 10:27:48;;;;;;;;;0.00;0.00;;;;;-146.67;26.13;73930.97;5084447;28;61785;-83
2023/05/20 10:30:16;;;;;;;;;0.00;0.00;;;;;-146.67;26.04;73934.94;5084106;28;61746;-83
2023/05/20 10:32:51;;;;;;;;;0.00;0.00;;;;;-146.67;26.08;73913.00;5082382;28;63673;-83
2023/05/20 10:35:26;;;;;;;;;0.00;0.00;;;;;-146.67;26.06;73911.00;5082674;28;61945;-84
2023/05/20 10:37:54;;;;;;;;;0.00;0.00;;;;;-146.67;26.01;73889.03;5084431;28;61980;-83
2023/05/20 10:40:21;;;;;;;;;0.00;0.00;;;;;-146.67;25.82;73869.09;5084006;27;61730;-83
2023/05/20 10:42:47;;;;;;;;;0.00;0.00;;;;;-146.67;26.02;73857.09;5083621;28;61884;-84
2023/05/20 10:45:28;;;;;;;;;0.00;0.00;;;;;-146.67;25.95;73849.13;5083955;28;61926;-83
2023/05/20 10:47:55;;;;;;;;;0.00;0.00;;;;;-146.67;25.54;73831.16;5083728;28;61842;-83
2023/05/20 10:50:35;;;;;;;;;0.00;0.00;;;;;-146.67;25.49;73821.19;5082378;28;61869;-84
2023/05/20 10:53:11;;;;;;;;;0.00;0.00;;;;;-146.67;25.63;73801.22;5081021;28;63621;-84
2023/05/20 10:55:38;;;;;;;;;0.00;0.00;;;;;-146.67;25.58;73795.22;5083958;28;62051;-84
2023/05/20 10:58:05;;;;;;;;;0.00;0.00;;;;;-146.67;25.68;73773.28;5083903;28;61754;-84
2023/05/20 11:00:33;;;;;;;;;0.00;0.00;;;;;-146.67;25.54;73759.28;5083872;28;61778;-84
2023/05/20 11:02:59;;;;;;;;;0.00;0.00;;;;;-146.67;25.48;73767.28;5083382;28;62124;-84
2023/05/20 11:05:25;;;;;;;;;0.00;0.00;;;;;-146.67;25.05;73749.31;5093769;27;61902;-83
2023/05/20 11:08:03;;;;;;;;;0.00;0.00;;;;;-146.67;25.44;73727.34;5083900;28;61948;-84